Time;durP1;ratioP1;P1;durP2;ratioP2;P2;SDS_P1;SDS_P2;PMS_P1;PMS_P2;Temp;Humidity;BMP_temperature;BMP_pressure;BME280_temperature;BME280_humidity;BME280_pressure;Samples;Min_cycle;Max_cycle;Signal;HPM_P1;HPM_P2
2022/04/04 00:01:30;;;;;;;;;;;3.10;99.90;;;;;;8406078;28;19934;-68
2022/04/04 00:05:31;;;;;;;;;;;3.10;99.90;;;;;;8408944;28;19928;-67
2022/04/04 00:09:33;;;;;;;;;;;3.10;99.90;;;;;;8401130;28;19920;-68
2022/04/04 00:13:35;;;;;;;;;;;3.10;99.90;;;;;;8390798;28;19920;-68
2022/04/04 00:17:36;;;;;;;;;;;3.20;99.90;;;;;;8409734;28;20916;-68
2022/04/04 00:21:38;;;;;;;;;;;3.20;99.90;;;;;;8384029;28;19928;-67
2022/04/04 00:25:40;;;;;;;;;;;3.20;99.90;;;;;;8423780;28;19924;-67
2022/04/04 00:29:42;;;;;;;;;;;3.10;99.90;;;;;;8372739;28;19931;-67
2022/04/04 00:33:43;;;;;;;;;;;3.20;99.90;;;;;;8386997;28;20532;-67
2022/04/04 00:37:45;;;;;;;;;;;3.20;99.90;;;;;;8393365;28;20434;-67
2022/04/04 00:41:47;;;;;;;;;;;3.20;99.90;;;;;;8373621;28;19927;-67
2022/04/04 00:45:50;;;;;;;;;;;3.20;99.90;;;;;;8384612;28;20322;-67
2022/04/04 00:49:52;;;;;;;;;;;3.20;99.90;;;;;;8410109;28;20244;-67
2022/04/04 00:53:53;;;;;;;;;;;3.20;99.90;;;;;;8408520;28;19943;-68
2022/04/04 00:57:55;;;;;;;;;;;3.10;99.90;;;;;;8392365;28;19940;-67
2022/04/04 01:01:57;;;;;;;;;;;3.10;99.90;;;;;;8421561;28;19924;-68
2022/04/04 01:05:59;;;;;;;;;;;3.10;99.90;;;;;;8407471;28;19996;-67
2022/04/04 01:10:01;;;;;;;;;;;3.10;99.90;;;;;;8417345;28;19920;-67
2022/04/04 01:14:03;;;;;;;;;;;3.10;99.90;;;;;;8390005;28;19924;-68
2022/04/04 01:18:05;;;;;;;;;;;3.10;99.90;;;;;;8409428;28;19935;-68
2022/04/04 01:22:08;;;;;;;;;;;3.10;99.90;;;;;;8403825;28;20364;-68
2022/04/04 01:26:11;;;;;;;;;;;3.10;99.90;;;;;;8388566;28;19935;-67
2022/04/04 01:30:13;;;;;;;;;;;3.10;99.90;;;;;;8388305;28;19939;-67
2022/04/04 01:34:16;;;;;;;;;;;3.00;99.90;;;;;;8411597;28;19928;-67
2022/04/04 01:38:18;;;;;;;;;;;3.10;99.90;;;;;;8401174;28;19930;-67
2022/04/04 01:42:20;;;;;;;;;;;3.10;99.90;;;;;;8371939;28;20257;-67
2022/04/04 01:46:24;;;;;;;;;;;3.10;99.90;;;;;;8394706;28;19924;-67
2022/04/04 01:50:26;;;;;;;;;;;3.10;99.90;;;;;;8392151;28;19921;-68
2022/04/04 01:54:28;;;;;;;;;;;3.10;99.90;;;;;;8403714;28;19928;-68
2022/04/04 01:58:30;;;;;;;;;;;3.20;99.90;;;;;;8406449;28;20025;-68
2022/04/04 02:02:31;;;;;;;;;;;3.20;99.90;;;;;;8397862;28;19947;-68
2022/04/04 02:06:33;;;;;;;;;;;3.20;99.90;;;;;;8380079;28;19928;-68
2022/04/04 02:10:35;;;;;;;;;;;3.30;99.90;;;;;;8401241;28;19924;-67
2022/04/04 02:14:36;;;;;;;;;;;3.30;99.90;;;;;;8383118;28;19919;-67
2022/04/04 02:18:38;;;;;;;;;;;3.30;99.90;;;;;;8377590;28;19929;-67
2022/04/04 02:22:40;;;;;;;;;;;3.30;99.90;;;;;;8393356;28;19927;-67
2022/04/04 02:26:42;;;;;;;;;;;3.40;99.90;;;;;;8404535;28;19920;-67
2022/04/04 02:30:44;;;;;;;;;;;3.40;99.90;;;;;;8383419;28;19924;-68
2022/04/04 02:34:46;;;;;;;;;;;3.50;99.90;;;;;;8392555;28;19926;-68
2022/04/04 02:38:48;;;;;;;;;;;3.50;99.90;;;;;;8403303;28;19950;-67
2022/04/04 02:42:49;;;;;;;;;;;3.50;99.90;;;;;;8409688;28;20378;-67
2022/04/04 02:46:51;;;;;;;;;;;3.50;99.90;;;;;;8410945;28;19920;-67
2022/04/04 02:50:53;;;;;;;;;;;3.60;99.90;;;;;;8420169;28;19931;-68
2022/04/04 02:54:55;;;;;;;;;;;3.60;99.90;;;;;;8416084;28;19920;-67
2022/04/04 02:58:58;;;;;;;;;;;3.70;99.90;;;;;;8402232;28;20033;-67
2022/04/04 03:02:59;;;;;;;;;;;3.70;99.90;;;;;;8396366;28;19924;-67
2022/04/04 03:07:01;;;;;;;;;;;3.80;99.90;;;;;;8386920;28;19924;-67
2022/04/04 03:11:03;;;;;;;;;;;3.80;99.90;;;;;;8391405;28;19928;-67
2022/04/04 03:15:05;;;;;;;;;;;3.80;99.90;;;;;;8420712;28;19928;-67
2022/04/04 03:19:07;;;;;;;;;;;3.90;99.90;;;;;;8414469;28;19928;-67
2022/04/04 03:23:08;;;;;;;;;;;3.90;99.90;;;;;;8392724;28;19924;-67
2022/04/04 03:27:13;;;;;;;;;;;3.90;99.90;;;;;;8420800;28;19934;-68
2022/04/04 03:31:15;;;;;;;;;;;3.90;99.90;;;;;;8393747;28;19927;-68
2022/04/04 03:35:17;;;;;;;;;;;4.00;99.90;;;;;;8393764;28;19920;-68
2022/04/04 03:39:19;;;;;;;;;;;4.00;99.90;;;;;;8402967;28;19924;-67
2022/04/04 03:43:22;;;;;;;;;;;4.00;99.90;;;;;;8408950;28;20276;-67
2022/04/04 03:47:24;;;;;;;;;;;4.10;99.90;;;;;;8404034;28;20408;-67
2022/04/04 03:51:25;;;;;;;;;;;4.10;99.90;;;;;;8403186;28;19920;-67
2022/04/04 03:55:29;;;;;;;;;;;4.10;99.90;;;;;;8397960;28;19970;-67
2022/04/04 03:59:31;;;;;;;;;;;4.10;99.90;;;;;;8401620;28;20360;-68
2022/04/04 04:03:34;;;;;;;;;;;4.20;99.90;;;;;;8398310;28;20284;-67
2022/04/04 04:07:36;;;;;;;;;;;4.20;99.90;;;;;;8399677;28;19971;-67
2022/04/04 04:11:38;;;;;;;;;;;4.20;99.90;;;;;;8400657;28;19927;-67
2022/04/04 04:15:40;;;;;;;;;;;4.20;99.90;;;;;;8388163;28;20382;-67
2022/04/04 04:24:02;;;;;;;;;;;4.30;99.90;;;;;;8401106;28;19955;-67
2022/04/04 04:28:04;;;;;;;;;;;4.30;99.90;;;;;;8405095;28;19939;-67
2022/04/04 04:32:07;;;;;;;;;;;4.40;99.90;;;;;;8399119;28;19920;-67
2022/04/04 04:36:10;;;;;;;;;;;4.40;99.90;;;;;;8404654;28;19928;-67
2022/04/04 04:40:12;;;;;;;;;;;4.40;99.90;;;;;;8403096;28;19923;-67
2022/04/04 04:44:14;;;;;;;;;;;4.40;99.90;;;;;;8415659;28;20437;-67
2022/04/04 04:48:16;;;;;;;;;;;4.40;99.90;;;;;;8403943;28;19931;-67
2022/04/04 04:52:18;;;;;;;;;;;4.40;99.90;;;;;;8400011;28;19931;-67
2022/04/04 04:56:19;;;;;;;;;;;4.40;99.90;;;;;;8411850;28;19920;-67
2022/04/04 05:00:23;;;;;;;;;;;4.50;99.90;;;;;;8407604;28;19931;-67
2022/04/04 05:04:25;;;;;;;;;;;4.50;99.90;;;;;;8397667;28;19931;-67
2022/04/04 05:08:27;;;;;;;;;;;4.50;99.90;;;;;;8406049;28;19920;-68
2022/04/04 05:12:28;;;;;;;;;;;4.50;99.90;;;;;;8395625;28;19927;-67
2022/04/04 05:16:30;;;;;;;;;;;4.50;99.90;;;;;;8397186;28;19943;-67
2022/04/04 05:20:32;;;;;;;;;;;4.60;99.90;;;;;;8401715;28;20339;-67
2022/04/04 05:24:35;;;;;;;;;;;4.60;99.90;;;;;;8400412;28;20287;-67
2022/04/04 05:28:36;;;;;;;;;;;4.60;99.90;;;;;;8392551;28;19923;-67
2022/04/04 05:32:38;;;;;;;;;;;4.70;99.90;;;;;;8378364;28;19928;-67
2022/04/04 05:36:40;;;;;;;;;;;4.70;99.90;;;;;;8398688;28;19959;-67
2022/04/04 05:40:41;;;;;;;;;;;4.70;99.90;;;;;;8407503;28;19973;-67
2022/04/04 05:44:43;;;;;;;;;;;4.70;99.90;;;;;;8424991;28;20355;-67
2022/04/04 05:48:45;;;;;;;;;;;4.80;99.90;;;;;;8387291;28;19931;-67
2022/04/04 05:52:47;;;;;;;;;;;4.80;99.90;;;;;;8398698;28;20281;-67
2022/04/04 05:56:48;;;;;;;;;;;4.90;99.90;;;;;;8403801;28;20378;-67
2022/04/04 06:00:56;;;;;;;;;;;5.00;99.90;;;;;;8418551;28;20302;-67
2022/04/04 06:04:57;;;;;;;;;;;5.00;99.90;;;;;;8397971;28;19951;-67
2022/04/04 06:08:59;;;;;;;;;;;5.10;99.90;;;;;;8398214;28;20082;-67
2022/04/04 06:13:00;;;;;;;;;;;5.10;99.90;;;;;;8385819;28;20359;-67
2022/04/04 06:17:06;;;;;;;;;;;5.10;99.90;;;;;;8396773;28;19921;-67
2022/04/04 06:21:07;;;;;;;;;;;5.20;99.90;;;;;;8411277;28;19920;-67
2022/04/04 06:25:12;;;;;;;;;;;5.20;99.90;;;;;;8407561;28;19924;-68
2022/04/04 06:29:14;;;;;;;;;;;5.30;99.90;;;;;;8410456;28;19920;-67
2022/04/04 06:33:20;;;;;;;;;;;5.40;99.90;;;;;;8406891;28;19920;-68
2022/04/04 06:37:23;;;;;;;;;;;5.50;99.90;;;;;;8409260;28;19964;-68
2022/04/04 06:41:24;;;;;;;;;;;5.60;99.90;;;;;;8384684;28;19931;-68
2022/04/04 06:45:26;;;;;;;;;;;5.60;99.90;;;;;;8389176;28;19927;-67
2022/04/04 06:49:28;;;;;;;;;;;5.70;99.90;;;;;;8388616;28;20375;-67
2022/04/04 06:53:30;;;;;;;;;;;5.80;99.90;;;;;;8390418;28;19920;-67
2022/04/04 06:57:32;;;;;;;;;;;5.80;99.90;;;;;;8388333;28;19930;-67
2022/04/04 07:01:35;;;;;;;;;;;5.90;99.90;;;;;;8396134;28;19931;-68
2022/04/04 07:05:37;;;;;;;;;;;6.00;99.90;;;;;;8398678;28;19974;-67
2022/04/04 07:09:38;;;;;;;;;;;5.90;99.90;;;;;;8392004;28;19924;-67
2022/04/04 07:13:40;;;;;;;;;;;5.80;99.90;;;;;;8393708;28;20815;-68
2022/04/04 07:17:43;;;;;;;;;;;5.80;99.90;;;;;;8397688;28;20462;-68
2022/04/04 07:21:45;;;;;;;;;;;5.80;99.90;;;;;;8377616;28;19924;-68
2022/04/04 07:25:49;;;;;;;;;;;6.00;99.90;;;;;;8393364;28;19920;-68
2022/04/04 07:29:51;;;;;;;;;;;6.10;99.90;;;;;;8387030;28;19920;-67
2022/04/04 07:33:54;;;;;;;;;;;6.10;99.90;;;;;;8395168;28;19925;-68
2022/04/04 07:37:58;;;;;;;;;;;6.10;99.90;;;;;;8394188;28;19924;-68
2022/04/04 07:42:00;;;;;;;;;;;6.10;99.90;;;;;;8387356;28;20297;-68
2022/04/04 07:46:02;;;;;;;;;;;6.10;99.90;;;;;;8390466;28;19920;-67
2022/04/04 07:50:04;;;;;;;;;;;6.10;99.90;;;;;;8388195;28;19980;-68
2022/04/04 07:54:06;;;;;;;;;;;6.10;99.90;;;;;;8389324;28;19927;-68
2022/04/04 07:58:08;;;;;;;;;;;6.10;99.90;;;;;;8390473;28;20038;-68
2022/04/04 08:02:09;;;;;;;;;;;6.10;99.90;;;;;;8385942;28;19924;-68
2022/04/04 08:06:11;;;;;;;;;;;6.20;99.90;;;;;;8406885;28;20380;-68
2022/04/04 08:10:13;;;;;;;;;;;6.20;99.90;;;;;;8385293;28;19921;-68
2022/04/04 08:14:14;;;;;;;;;;;6.30;99.90;;;;;;8390520;28;19922;-67
2022/04/04 08:18:16;;;;;;;;;;;6.20;99.90;;;;;;8389777;28;19928;-68
2022/04/04 08:22:18;;;;;;;;;;;6.10;99.90;;;;;;8389284;28;19920;-68
2022/04/04 08:26:20;;;;;;;;;;;6.00;99.90;;;;;;8388044;28;20267;-68
2022/04/04 08:30:21;;;;;;;;;;;5.90;99.90;;;;;;8388961;28;19943;-68
2022/04/04 08:34:23;;;;;;;;;;;5.90;99.90;;;;;;8390374;28;19924;-67
2022/04/04 08:38:25;;;;;;;;;;;5.70;99.90;;;;;;8389596;28;20391;-67
2022/04/04 08:42:27;;;;;;;;;;;5.60;99.90;;;;;;8390332;28;19928;-68
2022/04/04 08:46:29;;;;;;;;;;;5.50;99.90;;;;;;8387900;28;19920;-68
2022/04/04 08:50:32;;;;;;;;;;;5.40;99.90;;;;;;8389519;28;20076;-68
2022/04/04 08:54:34;;;;;;;;;;;5.30;99.90;;;;;;8385642;28;19921;-68
2022/04/04 08:58:36;;;;;;;;;;;5.30;99.90;;;;;;8387800;28;20245;-68
2022/04/04 09:02:37;;;;;;;;;;;5.30;99.90;;;;;;8388236;28;19943;-69
2022/04/04 09:06:50;;;;;;;;;;;5.30;99.90;;;;;;8386932;28;20368;-68
2022/04/04 09:10:55;;;;;;;;;;;5.30;99.90;;;;;;8389866;28;19920;-68
2022/04/04 09:14:57;;;;;;;;;;;5.20;99.90;;;;;;8385181;28;20027;-68
2022/04/04 09:18:59;;;;;;;;;;;5.20;99.90;;;;;;8382014;28;19936;-68
2022/04/04 09:23:01;;;;;;;;;;;5.20;99.90;;;;;;8381308;28;20356;-68
2022/04/04 09:27:09;;;;;;;;;;;5.30;99.90;;;;;;8388425;28;21157;-68
2022/04/04 09:31:10;;;;;;;;;;;5.20;99.90;;;;;;8382258;28;19943;-68
2022/04/04 09:35:13;;;;;;;;;;;5.20;99.90;;;;;;8381557;28;19921;-68
2022/04/04 09:39:16;;;;;;;;;;;5.20;99.90;;;;;;8370267;28;20318;-68
2022/04/04 09:43:17;;;;;;;;;;;5.20;99.90;;;;;;8389930;28;19927;-68
2022/04/04 09:47:19;;;;;;;;;;;5.20;99.90;;;;;;8388724;28;20272;-68
2022/04/04 09:51:38;;;;;;;;;;;5.20;99.90;;;;;;8385693;28;19928;-68
2022/04/04 09:55:40;;;;;;;;;;;5.20;99.90;;;;;;8386424;28;20222;-68
2022/04/04 09:59:42;;;;;;;;;;;5.30;99.90;;;;;;8385292;28;19920;-68
2022/04/04 10:03:45;;;;;;;;;;;5.30;99.90;;;;;;8386247;28;19928;-68
2022/04/04 10:07:49;;;;;;;;;;;5.40;99.90;;;;;;8400393;28;19935;-68
2022/04/04 10:11:54;;;;;;;;;;;5.40;99.90;;;;;;8388798;28;19920;-68
2022/04/04 10:15:56;;;;;;;;;;;5.40;99.90;;;;;;8369851;28;19932;-68
2022/04/04 10:19:58;;;;;;;;;;;5.40;99.90;;;;;;8385020;28;19973;-67
2022/04/04 10:24:00;;;;;;;;;;;5.40;99.90;;;;;;8388412;28;20516;-67
2022/04/04 10:28:02;;;;;;;;;;;5.50;99.90;;;;;;8386359;28;19924;-67
2022/04/04 10:32:05;;;;;;;;;;;5.50;99.90;;;;;;8369070;28;19931;-68
2022/04/04 10:36:06;;;;;;;;;;;5.50;99.90;;;;;;8386474;28;19924;-67
2022/04/04 10:40:18;;;;;;;;;;;5.50;99.90;;;;;;8383910;28;20383;-67
2022/04/04 10:44:21;;;;;;;;;;;5.60;99.90;;;;;;8385195;28;19921;-67
2022/04/04 10:48:27;;;;;;;;;;;5.60;99.90;;;;;;8393376;28;19924;-67
2022/04/04 10:52:39;;;;;;;;;;;5.60;99.90;;;;;;8386736;28;20379;-67
2022/04/04 10:56:41;;;;;;;;;;;5.70;99.90;;;;;;8388309;28;19939;-67
2022/04/04 11:01:05;;;;;;;;;;;5.70;99.90;;;;;;8372528;28;19921;-67
2022/04/04 11:09:51;;;;;;;;;;;5.80;99.90;;;;;;8388245;28;19929;-67
2022/04/04 11:13:52;;;;;;;;;;;5.90;99.90;;;;;;8385795;28;19940;-67
2022/04/04 11:17:57;;;;;;;;;;;5.90;99.90;;;;;;8385683;28;19927;-67
2022/04/04 11:21:59;;;;;;;;;;;5.90;99.90;;;;;;8385442;28;19920;-67
2022/04/04 11:26:04;;;;;;;;;;;5.90;99.90;;;;;;8398205;28;19935;-67
2022/04/04 11:30:10;;;;;;;;;;;5.90;99.90;;;;;;8388006;28;19991;-67
2022/04/04 11:34:13;;;;;;;;;;;6.00;99.90;;;;;;8391256;28;20348;-67
2022/04/04 11:38:17;;;;;;;;;;;6.00;99.90;;;;;;8386881;28;19920;-66
2022/04/04 11:42:22;;;;;;;;;;;6.00;99.90;;;;;;8392118;28;19920;-67
2022/04/04 11:46:24;;;;;;;;;;;6.10;99.90;;;;;;8387641;28;19928;-67
2022/04/04 11:50:28;;;;;;;;;;;6.20;99.90;;;;;;8395504;28;19928;-67
2022/04/04 11:54:37;;;;;;;;;;;6.20;99.90;;;;;;8394056;28;19932;-67
2022/04/04 11:58:51;;;;;;;;;;;6.30;99.90;;;;;;8390883;28;19938;-67
2022/04/04 12:02:53;;;;;;;;;;;6.40;99.90;;;;;;8391452;28;20256;-67
2022/04/04 12:06:55;;;;;;;;;;;6.40;99.90;;;;;;8388806;28;19924;-67
2022/04/04 12:10:56;;;;;;;;;;;6.50;99.90;;;;;;8391679;28;19924;-66
2022/04/04 12:14:58;;;;;;;;;;;6.50;99.90;;;;;;8405681;28;20477;-67
2022/04/04 12:19:00;;;;;;;;;;;6.50;99.90;;;;;;8390882;28;19924;-67
2022/04/04 12:27:24;;;;;;;;;;;6.60;99.90;;;;;;8389909;28;19928;-66
2022/04/04 12:31:27;;;;;;;;;;;6.70;99.90;;;;;;8390228;28;19924;-66
2022/04/04 12:35:30;;;;;;;;;;;6.70;99.90;;;;;;8388573;28;19935;-66
2022/04/04 12:39:32;;;;;;;;;;;6.80;99.90;;;;;;8388798;28;20264;-66
2022/04/04 12:43:34;;;;;;;;;;;6.90;99.90;;;;;;8388057;28;20260;-66
2022/04/04 12:47:51;;;;;;;;;;;6.90;99.90;;;;;;8385857;28;20351;-66
2022/04/04 12:51:58;;;;;;;;;;;6.90;99.90;;;;;;8390826;28;19927;-66
2022/04/04 12:56:06;;;;;;;;;;;7.00;99.90;;;;;;8403875;28;19966;-66
2022/04/04 13:00:08;;;;;;;;;;;7.10;99.90;;;;;;8383124;28;19919;-66
2022/04/04 13:04:21;;;;;;;;;;;7.10;99.90;;;;;;8392054;28;19921;-66
2022/04/04 13:08:29;;;;;;;;;;;7.20;99.90;;;;;;8391892;28;19920;-66
2022/04/04 13:12:31;;;;;;;;;;;7.20;99.90;;;;;;8377612;28;19929;-66
2022/04/04 13:16:34;;;;;;;;;;;7.30;99.90;;;;;;8390917;28;19940;-66
2022/04/04 13:20:36;;;;;;;;;;;7.30;99.90;;;;;;8387484;28;20015;-66
2022/04/04 13:24:44;;;;;;;;;;;7.40;99.90;;;;;;8373661;28;19971;-66
2022/04/04 13:28:45;;;;;;;;;;;7.40;99.90;;;;;;8371887;28;19928;-66
2022/04/04 13:32:47;;;;;;;;;;;7.50;99.90;;;;;;8387028;28;19929;-66
2022/04/04 13:36:49;;;;;;;;;;;7.50;99.90;;;;;;8384758;28;19924;-66
2022/04/04 13:40:50;;;;;;;;;;;7.60;99.90;;;;;;8387978;28;20280;-66
2022/04/04 13:44:52;;;;;;;;;;;7.60;99.90;;;;;;8402517;28;20407;-65
2022/04/04 13:48:54;;;;;;;;;;;7.60;99.90;;;;;;8382959;28;19931;-65
2022/04/04 13:52:56;;;;;;;;;;;7.60;99.90;;;;;;8387781;28;19920;-66
2022/04/04 13:56:57;;;;;;;;;;;7.70;99.90;;;;;;8398830;28;19928;-65
2022/04/04 14:01:01;;;;;;;;;;;7.70;99.90;;;;;;8388991;28;19984;-66
2022/04/04 14:05:05;;;;;;;;;;;7.70;99.90;;;;;;8389073;28;20519;-66
2022/04/04 14:09:08;;;;;;;;;;;7.70;99.90;;;;;;8385311;28;19924;-66
2022/04/04 14:13:10;;;;;;;;;;;7.80;99.90;;;;;;8386942;28;20356;-66
2022/04/04 14:17:13;;;;;;;;;;;7.80;99.90;;;;;;8380713;28;19928;-65
2022/04/04 14:21:15;;;;;;;;;;;7.80;99.90;;;;;;8387929;28;19965;-66
2022/04/04 14:25:17;;;;;;;;;;;7.90;99.90;;;;;;8387910;28;20635;-66
2022/04/04 14:29:21;;;;;;;;;;;7.90;99.90;;;;;;8370211;28;19929;-66
2022/04/04 14:33:23;;;;;;;;;;;7.90;99.90;;;;;;8381622;28;19931;-65
2022/04/04 14:37:26;;;;;;;;;;;7.90;99.90;;;;;;8387872;28;19932;-66
2022/04/04 14:41:27;;;;;;;;;;;7.90;99.90;;;;;;8386899;28;19969;-66
2022/04/04 14:45:30;;;;;;;;;;;8.00;99.90;;;;;;8387911;28;19924;-66
2022/04/04 14:49:32;;;;;;;;;;;8.00;99.90;;;;;;8385257;28;19959;-66
2022/04/04 14:53:34;;;;;;;;;;;8.00;99.90;;;;;;8387624;28;19924;-66
2022/04/04 14:57:41;;;;;;;;;;;8.00;99.90;;;;;;8387266;28;20351;-66
2022/04/04 15:01:43;;;;;;;;;;;8.00;99.90;;;;;;8387818;28;19925;-66
2022/04/04 15:05:44;;;;;;;;;;;8.00;99.90;;;;;;8393387;28;19943;-66
2022/04/04 15:09:46;;;;;;;;;;;8.10;99.90;;;;;;8392358;28;20011;-66
2022/04/04 15:13:51;;;;;;;;;;;8.10;99.90;;;;;;8391929;28;19943;-66
2022/04/04 15:17:53;;;;;;;;;;;8.10;99.90;;;;;;8392959;28;19928;-66
2022/04/04 15:21:55;;;;;;;;;;;8.10;99.90;;;;;;8392409;28;19924;-66
2022/04/04 15:25:56;;;;;;;;;;;8.20;99.90;;;;;;8393237;28;19932;-66
2022/04/04 15:29:58;;;;;;;;;;;8.20;99.90;;;;;;8387303;28;19932;-66
2022/04/04 15:34:00;;;;;;;;;;;8.20;99.90;;;;;;8389607;28;19932;-66
2022/04/04 15:38:02;;;;;;;;;;;8.20;99.90;;;;;;8383410;28;19924;-66
2022/04/04 15:42:04;;;;;;;;;;;8.30;99.90;;;;;;8369571;28;19947;-66
2022/04/04 15:46:06;;;;;;;;;;;8.30;99.90;;;;;;8390746;28;19939;-66
2022/04/04 15:50:13;;;;;;;;;;;8.40;99.90;;;;;;8387022;28;19928;-66
2022/04/04 15:54:15;;;;;;;;;;;8.40;99.90;;;;;;8389412;28;19936;-66
2022/04/04 15:58:16;;;;;;;;;;;8.40;99.90;;;;;;8384044;28;19935;-66
2022/04/04 16:02:18;;;;;;;;;;;8.50;99.90;;;;;;8388005;28;19933;-66
2022/04/04 16:06:21;;;;;;;;;;;8.50;99.90;;;;;;8380782;28;19931;-66
2022/04/04 16:10:22;;;;;;;;;;;8.50;99.90;;;;;;8370534;28;20376;-66
2022/04/04 16:14:24;;;;;;;;;;;8.50;99.90;;;;;;8384272;28;19962;-66
2022/04/04 16:18:27;;;;;;;;;;;8.60;99.90;;;;;;8389172;28;19932;-66
2022/04/04 16:22:29;;;;;;;;;;;8.60;99.90;;;;;;8387080;28;19976;-66
2022/04/04 16:26:33;;;;;;;;;;;8.60;99.90;;;;;;8388076;28;20402;-66
2022/04/04 16:30:55;;;;;;;;;;;8.70;99.90;;;;;;8386536;28;20392;-66
2022/04/04 16:34:57;;;;;;;;;;;8.70;99.90;;;;;;8372029;28;19925;-66
2022/04/04 16:38:59;;;;;;;;;;;8.70;99.90;;;;;;8392402;28;19932;-66
2022/04/04 16:43:01;;;;;;;;;;;8.80;99.90;;;;;;8388998;28;19928;-66
2022/04/04 16:47:03;;;;;;;;;;;8.80;99.90;;;;;;8402265;28;19928;-66
2022/04/04 16:51:05;;;;;;;;;;;8.80;99.90;;;;;;8387135;28;19928;-66
2022/04/04 16:55:07;;;;;;;;;;;8.80;99.90;;;;;;8374940;28;23342;-66
2022/04/04 16:59:09;;;;;;;;;;;8.80;99.90;;;;;;8388743;28;19936;-66
2022/04/04 17:03:11;;;;;;;;;;;8.90;99.90;;;;;;8390038;28;19928;-66
2022/04/04 17:07:12;;;;;;;;;;;8.90;99.90;;;;;;8385645;28;19924;-66
2022/04/04 17:11:14;;;;;;;;;;;8.90;99.90;;;;;;8386885;28;19928;-66
2022/04/04 17:15:17;;;;;;;;;;;9.00;99.90;;;;;;8401325;28;19932;-66
2022/04/04 17:19:22;;;;;;;;;;;9.00;99.90;;;;;;8385029;28;20437;-66
2022/04/04 17:23:27;;;;;;;;;;;9.10;99.90;;;;;;8379538;28;19924;-66
2022/04/04 17:27:29;;;;;;;;;;;9.10;99.90;;;;;;8386760;28;19944;-66
2022/04/04 17:31:30;;;;;;;;;;;9.10;99.90;;;;;;8390731;28;19925;-65
2022/04/04 17:35:32;;;;;;;;;;;9.10;99.90;;;;;;8393543;28;19978;-66
2022/04/04 17:39:34;;;;;;;;;;;9.10;99.90;;;;;;8371082;28;19936;-66
2022/04/04 17:43:35;;;;;;;;;;;9.20;99.90;;;;;;8388560;28;19928;-66
2022/04/04 17:47:42;;;;;;;;;;;9.20;99.90;;;;;;8371322;28;20321;-66
2022/04/04 17:51:44;;;;;;;;;;;9.20;99.90;;;;;;8389193;28;19924;-66
2022/04/04 17:55:46;;;;;;;;;;;9.20;99.90;;;;;;8389116;28;19932;-66
2022/04/04 17:59:48;;;;;;;;;;;9.30;99.90;;;;;;8389191;28;24134;-66
2022/04/04 18:03:49;;;;;;;;;;;9.20;99.90;;;;;;8389606;28;19932;-66
2022/04/04 18:07:51;;;;;;;;;;;9.30;99.90;;;;;;8372633;28;19932;-66
2022/04/04 18:11:53;;;;;;;;;;;9.30;99.90;;;;;;8388972;28;19927;-66
2022/04/04 18:15:55;;;;;;;;;;;9.30;99.90;;;;;;8403571;28;19932;-66
2022/04/04 18:19:59;;;;;;;;;;;9.40;99.90;;;;;;8381374;28;19946;-66
2022/04/04 18:24:01;;;;;;;;;;;9.40;99.90;;;;;;8390185;28;19924;-66
2022/04/04 18:28:05;;;;;;;;;;;9.40;99.90;;;;;;8388624;28;20020;-66
2022/04/04 18:32:08;;;;;;;;;;;9.40;99.90;;;;;;8392483;28;19928;-66
2022/04/04 18:36:10;;;;;;;;;;;9.40;99.90;;;;;;8387112;28;19928;-66
2022/04/04 18:40:13;;;;;;;;;;;9.40;99.90;;;;;;8396076;28;19948;-66
2022/04/04 18:44:14;;;;;;;;;;;9.50;99.90;;;;;;8393312;28;19925;-66
2022/04/04 18:48:16;;;;;;;;;;;9.50;99.90;;;;;;8397988;28;19964;-66
2022/04/04 18:52:18;;;;;;;;;;;9.50;99.90;;;;;;8397155;28;20016;-66
2022/04/04 18:56:19;;;;;;;;;;;9.50;99.90;;;;;;8394327;28;20275;-66
2022/04/04 19:00:21;;;;;;;;;;;9.50;99.90;;;;;;8395051;28;19998;-66
2022/04/04 19:04:23;;;;;;;;;;;9.50;99.90;;;;;;8394923;28;19925;-66
2022/04/04 19:08:25;;;;;;;;;;;9.50;99.90;;;;;;8393916;28;19925;-66
2022/04/04 19:12:26;;;;;;;;;;;9.50;99.90;;;;;;8394874;28;20418;-66
2022/04/04 19:16:35;;;;;;;;;;;9.50;99.90;;;;;;8393052;28;19932;-66
2022/04/04 19:20:37;;;;;;;;;;;9.50;99.90;;;;;;8394858;28;19929;-66
2022/04/04 19:24:38;;;;;;;;;;;9.50;99.90;;;;;;8395675;28;19939;-66
2022/04/04 19:28:40;;;;;;;;;;;9.50;99.90;;;;;;8392043;28;19935;-66
2022/04/04 19:32:42;;;;;;;;;;;9.50;99.90;;;;;;8394383;28;19940;-67
2022/04/04 19:36:44;;;;;;;;;;;9.50;99.90;;;;;;8392530;28;19935;-66
2022/04/04 19:40:46;;;;;;;;;;;9.60;99.90;;;;;;8391001;28;20008;-66
2022/04/04 19:44:48;;;;;;;;;;;9.60;99.90;;;;;;8392688;28;19932;-66
2022/04/04 19:48:49;;;;;;;;;;;9.60;99.90;;;;;;8394112;28;19931;-67
2022/04/04 19:52:52;;;;;;;;;;;9.60;99.90;;;;;;8396369;28;19931;-67
2022/04/04 19:56:58;;;;;;;;;;;9.60;99.90;;;;;;8391294;28;20613;-66
2022/04/04 20:01:00;;;;;;;;;;;9.60;99.90;;;;;;8379788;28;20287;-66
2022/04/04 20:05:02;;;;;;;;;;;9.70;99.90;;;;;;8377357;28;19960;-67
2022/04/04 20:09:06;;;;;;;;;;;9.70;99.90;;;;;;8393143;28;19924;-67
2022/04/04 20:13:09;;;;;;;;;;;9.70;99.90;;;;;;8388368;28;19924;-66
2022/04/04 20:17:12;;;;;;;;;;;9.70;99.90;;;;;;8390238;28;19932;-67
2022/04/04 20:21:14;;;;;;;;;;;9.70;99.90;;;;;;8379127;28;19932;-67
2022/04/04 20:25:15;;;;;;;;;;;9.70;99.90;;;;;;8390689;28;19932;-66
2022/04/04 20:29:17;;;;;;;;;;;9.70;99.90;;;;;;8387760;28;19924;-67
2022/04/04 20:33:19;;;;;;;;;;;9.80;99.90;;;;;;8391647;28;19939;-67
2022/04/04 20:37:21;;;;;;;;;;;9.80;99.90;;;;;;8375688;28;19954;-66
2022/04/04 20:41:24;;;;;;;;;;;9.80;99.90;;;;;;8388302;28;19928;-66
2022/04/04 20:45:25;;;;;;;;;;;9.80;99.90;;;;;;8391660;28;19936;-66
2022/04/04 20:49:27;;;;;;;;;;;9.80;99.90;;;;;;8386068;28;19929;-66
2022/04/04 20:53:29;;;;;;;;;;;9.90;99.90;;;;;;8387492;28;19943;-67
2022/04/04 20:57:30;;;;;;;;;;;9.90;99.90;;;;;;8385683;28;19932;-66
2022/04/04 21:01:32;;;;;;;;;;;9.90;99.90;;;;;;8408823;28;20347;-66
2022/04/04 21:05:34;;;;;;;;;;;9.90;99.90;;;;;;8403521;28;20264;-67
2022/04/04 21:09:40;;;;;;;;;;;10.00;99.90;;;;;;8407519;28;20367;-67
2022/04/04 21:13:42;;;;;;;;;;;10.00;99.90;;;;;;8398703;28;19932;-66
2022/04/04 21:17:43;;;;;;;;;;;10.10;99.90;;;;;;8400066;28;20244;-67
2022/04/04 21:21:45;;;;;;;;;;;10.10;99.90;;;;;;8409482;28;20264;-67
2022/04/04 21:25:46;;;;;;;;;;;10.10;99.90;;;;;;8405849;28;20340;-67
2022/04/04 21:29:49;;;;;;;;;;;10.10;99.90;;;;;;8394433;28;19924;-66
2022/04/04 21:33:52;;;;;;;;;;;10.10;99.90;;;;;;8396838;28;19935;-66
2022/04/04 21:37:54;;;;;;;;;;;10.20;99.90;;;;;;8393444;28;19924;-67
2022/04/04 21:41:56;;;;;;;;;;;10.20;99.90;;;;;;8403742;28;19924;-67
2022/04/04 21:45:58;;;;;;;;;;;10.20;99.90;;;;;;8401456;28;19928;-66
2022/04/04 21:50:00;;;;;;;;;;;10.30;99.90;;;;;;8401038;28;19928;-67
2022/04/04 21:54:02;;;;;;;;;;;10.30;99.90;;;;;;8389250;28;19931;-66
2022/04/04 21:58:04;;;;;;;;;;;10.30;99.90;;;;;;8406273;28;20010;-66
2022/04/04 22:02:05;;;;;;;;;;;10.30;99.90;;;;;;8408341;28;19924;-66
2022/04/04 22:06:07;;;;;;;;;;;10.30;99.90;;;;;;8400114;28;19928;-66
2022/04/04 22:10:09;;;;;;;;;;;10.30;99.90;;;;;;8403384;28;19937;-66
2022/04/04 22:14:11;;;;;;;;;;;10.20;99.90;;;;;;8397983;28;19950;-66
2022/04/04 22:18:13;;;;;;;;;;;10.20;99.90;;;;;;8393745;28;19935;-66
2022/04/04 22:22:15;;;;;;;;;;;10.20;99.90;;;;;;8408566;28;19933;-66
2022/04/04 22:26:17;;;;;;;;;;;10.20;99.90;;;;;;8417936;28;19928;-66
2022/04/04 22:30:18;;;;;;;;;;;10.20;99.90;;;;;;8414289;28;20359;-67
2022/04/04 22:34:20;;;;;;;;;;;10.20;99.90;;;;;;8404273;28;19944;-66
2022/04/04 22:38:22;;;;;;;;;;;10.20;99.90;;;;;;8400606;28;19928;-66
2022/04/04 22:42:23;;;;;;;;;;;10.20;99.90;;;;;;8392073;28;19924;-66
2022/04/04 22:46:25;;;;;;;;;;;10.10;99.90;;;;;;8415023;28;19931;-66
2022/04/04 22:50:27;;;;;;;;;;;10.10;99.90;;;;;;8384755;28;20389;-66
2022/04/04 22:54:28;;;;;;;;;;;10.10;99.90;;;;;;8402137;28;20352;-66
2022/04/04 22:58:30;;;;;;;;;;;10.00;99.90;;;;;;8406408;28;19932;-66
2022/04/04 23:02:32;;;;;;;;;;;9.90;99.90;;;;;;8405394;28;19925;-66
2022/04/04 23:06:34;;;;;;;;;;;9.90;99.90;;;;;;8387309;28;19924;-66
2022/04/04 23:10:35;;;;;;;;;;;9.90;99.90;;;;;;8389866;28;19995;-66
2022/04/04 23:14:37;;;;;;;;;;;9.90;99.90;;;;;;8410399;28;19924;-66
2022/04/04 23:18:39;;;;;;;;;;;9.90;99.90;;;;;;8398580;28;19931;-66
2022/04/04 23:22:41;;;;;;;;;;;9.90;99.90;;;;;;8396840;28;19944;-66
2022/04/04 23:26:43;;;;;;;;;;;9.90;99.90;;;;;;8406491;28;19928;-66
2022/04/04 23:30:44;;;;;;;;;;;9.80;99.90;;;;;;8422173;28;19925;-66
2022/04/04 23:34:46;;;;;;;;;;;9.80;99.90;;;;;;8412070;28;20430;-66
2022/04/04 23:38:48;;;;;;;;;;;9.80;99.90;;;;;;8397729;28;20393;-65
2022/04/04 23:42:49;;;;;;;;;;;9.80;99.90;;;;;;8413388;28;19931;-65
2022/04/04 23:46:51;;;;;;;;;;;9.80;99.90;;;;;;8422798;28;19928;-66
2022/04/04 23:50:53;;;;;;;;;;;9.80;99.90;;;;;;8396809;28;19924;-65
2022/04/04 23:54:54;;;;;;;;;;;9.80;99.90;;;;;;8414902;28;20280;-66
2022/04/04 23:58:56;;;;;;;;;;;9.70;99.90;;;;;;8413582;28;20610;-65
